Terminal Aerodrome Forecast
Issued by NWS

Home | Current Version | Previous Version | Text Only | Print | Product List | Glossary On
Versions: 1 2 3 4 5 6 7 8 9 10 11 12 13 14
000
FTUS45 KGGW 252320
TAFGDV
TAF
KGDV 252320Z 2600/2624 07008KT P6SM FEW150
     FM261200 VRB06KT P6SM BKN110
     FM261800 06010KT P6SM VCSH SCT100 PROB30 2618/2624 6SM TS
      BKN060CB BKN090 BKN100=

USA.gov is the U.S. government's official web portal to all federal, state and local government web resources and services.